Terminal Aerodrome Forecast
Issued by NWS

Home | Current Version | Previous Version | Text Only | Print | Product List | Glossary On
Versions: 1 2 3 4 5 6 7 8 9 10 11 12 13 14 15 16 17 18 19
000
FTUS45 KFGZ 271700
TAFGCN
TAF
KGCN 271722Z 2718/2818 27009KT P6SM SCT060
      TEMPO 2720/2722 5SM -TSRA BKN040CB
     FM280300 VRB03KT P6SM FEW050=

USA.gov is the U.S. government's official web portal to all federal, state and local government web resources and services.